createdAt,value
2022-10-02T00:01:39.966Z,99469.56
2022-10-02T00:04:16.298Z,99459.91
2022-10-02T00:06:49.776Z,99472.34
2022-10-02T00:09:27.421Z,99487.41
2022-10-02T00:12:00.775Z,99500.00
2022-10-02T00:14:38.679Z,99501.63
2022-10-02T00:17:14.100Z,99500.63
2022-10-02T00:19:47.325Z,99493.28
2022-10-02T00:22:37.252Z,99502.91
2022-10-02T00:25:16.441Z,99508.19
2022-10-02T00:28:04.638Z,99505.47
2022-10-02T00:30:47.711Z,99514.09
2022-10-02T00:33:26.835Z,99509.16
2022-10-02T00:36:10.185Z,99529.03
2022-10-02T00:38:50.614Z,99523.06
2022-10-02T00:41:40.693Z,99527.69
2022-10-02T00:44:30.506Z,99529.34
2022-10-02T00:47:10.841Z,99520.81
2022-10-02T00:50:05.435Z,99511.59
2022-10-02T00:52:52.586Z,99523.06
2022-10-02T00:55:50.975Z,99529.19
2022-10-02T00:58:38.367Z,99532.97
2022-10-02T01:01:13.469Z,99536.06
2022-10-02T01:03:53.384Z,99549.22
2022-10-02T01:06:29.641Z,99543.22
2022-10-02T01:09:01.559Z,99541.63
2022-10-02T01:11:33.624Z,99547.06
2022-10-02T01:14:04.391Z,99563.78
2022-10-02T01:16:35.787Z,99570.50
2022-10-02T01:19:13.713Z,99569.41
2022-10-02T01:21:56.085Z,99563.84
2022-10-02T01:24:32.937Z,99569.84
2022-10-02T01:27:05.989Z,99573.59
2022-10-02T01:29:36.897Z,99571.69
2022-10-02T01:32:07.356Z,99571.16
2022-10-02T01:34:37.991Z,99576.03
2022-10-02T01:37:08.549Z,99572.56
2022-10-02T01:39:39.470Z,99561.13
2022-10-02T01:42:12.443Z,99575.59
2022-10-02T01:44:42.791Z,99577.69
2022-10-02T01:47:18.312Z,99580.47
2022-10-02T01:50:04.375Z,99580.75
2022-10-02T01:52:46.653Z,99583.00
2022-10-02T01:55:34.542Z,99594.56
2022-10-02T01:58:22.131Z,99601.91
2022-10-02T02:04:05.371Z,99596.63
2022-10-02T02:06:45.137Z,99598.03
2022-10-02T02:09:20.164Z,99598.59
2022-10-02T02:11:57.836Z,99609.91
2022-10-02T02:14:36.259Z,99605.59
2022-10-02T02:17:13.262Z,99596.41
2022-10-02T02:19:48.879Z,99608.66
2022-10-02T02:22:25.140Z,99610.75
2022-10-02T02:25:00.867Z,99609.63
2022-10-02T02:27:37.034Z,99611.88
2022-10-02T02:30:14.813Z,99615.75
2022-10-02T02:32:50.393Z,99617.44
2022-10-02T02:35:26.405Z,99618.97
2022-10-02T02:38:03.838Z,99626.06
2022-10-02T02:40:39.358Z,99623.84
2022-10-02T02:43:12.948Z,99619.25
2022-10-02T02:45:51.093Z,99622.03
2022-10-02T02:48:25.722Z,99617.72
2022-10-02T02:51:00.504Z,99630.38
2022-10-02T02:53:36.481Z,99627.88
2022-10-02T02:56:11.226Z,99635.69
2022-10-02T02:58:47.544Z,99634.25
2022-10-02T03:01:21.450Z,99643.84
2022-10-02T03:03:51.846Z,99629.50
2022-10-02T03:06:41.183Z,99647.03
2022-10-02T03:09:15.348Z,99652.59
2022-10-02T03:11:56.241Z,99652.06
2022-10-02T03:14:51.340Z,99657.31
2022-10-02T03:17:36.473Z,99658.44
2022-10-02T03:20:17.045Z,99667.94
2022-10-02T03:22:56.984Z,99663.34
2022-10-02T03:25:32.712Z,99669.75
2022-10-02T03:28:10.576Z,99675.16
2022-10-02T03:30:43.225Z,99669.03
2022-10-02T03:33:18.332Z,99673.78
2022-10-02T03:35:50.804Z,99682.97
2022-10-02T03:38:23.873Z,99684.63
2022-10-02T03:40:54.087Z,99697.00
2022-10-02T03:43:26.514Z,99699.69
2022-10-02T03:45:56.779Z,99703.59
2022-10-02T03:48:29.539Z,99710.44
2022-10-02T03:51:02.515Z,99712.94
2022-10-02T03:53:37.091Z,99715.84
2022-10-02T03:56:10.645Z,99723.09
2022-10-02T03:58:46.532Z,99726.44
2022-10-02T04:01:23.826Z,99728.25
2022-10-02T04:04:02.262Z,99730.88
2022-10-02T04:06:43.899Z,99750.38
2022-10-02T04:09:19.791Z,99748.56
2022-10-02T04:11:57.585Z,99751.63
2022-10-02T04:14:33.276Z,99752.59
2022-10-02T04:17:07.566Z,99744.41
2022-10-02T04:19:47.007Z,99748.84
2022-10-02T04:22:25.657Z,99751.19
2022-10-02T04:25:01.218Z,99758.31
2022-10-02T04:27:38.039Z,99752.19
2022-10-02T04:30:12.310Z,99745.91
2022-10-02T04:32:42.436Z,99753.84
2022-10-02T04:35:25.584Z,99766.09
2022-10-02T04:38:10.417Z,99769.56
2022-10-02T04:40:58.316Z,99777.91
2022-10-02T04:43:47.265Z,99772.34
2022-10-02T04:46:31.733Z,99777.81
2022-10-02T04:49:20.681Z,99779.75
2022-10-02T04:52:18.059Z,99781.13
2022-10-02T04:55:11.005Z,99781.41
2022-10-02T04:58:02.442Z,99782.09
2022-10-02T05:00:39.210Z,99783.47
2022-10-02T05:03:25.572Z,99789.63
2022-10-02T05:06:08.963Z,99784.19
2022-10-02T05:09:00.157Z,99796.03
2022-10-02T05:11:46.217Z,99793.38
2022-10-02T05:14:35.239Z,99795.03
2022-10-02T05:17:18.827Z,99793.53
2022-10-02T05:20:06.372Z,99803.13
2022-10-02T05:23:09.271Z,99793.34
2022-10-02T05:26:22.029Z,99798.91
2022-10-02T05:29:09.936Z,99797.09
2022-10-02T05:31:51.641Z,99804.34
2022-10-02T05:34:41.468Z,99802.38
2022-10-02T05:37:27.666Z,99797.63
2022-10-02T05:40:04.667Z,99815.34
2022-10-02T05:42:43.287Z,99800.06
2022-10-02T05:45:25.159Z,99826.41
2022-10-02T05:47:58.484Z,99824.34
2022-10-02T05:50:33.801Z,99815.53
2022-10-02T05:53:07.662Z,99811.06
2022-10-02T05:55:43.017Z,99819.69
2022-10-02T05:58:22.907Z,99819.06
2022-10-02T06:00:56.933Z,99818.53
2022-10-02T06:03:34.264Z,99815.75
2022-10-02T06:06:13.606Z,99818.69
2022-10-02T06:08:47.506Z,99807.38
2022-10-02T06:11:21.471Z,99821.84
2022-10-02T06:14:01.778Z,99817.22
2022-10-02T06:16:40.171Z,99817.94
2022-10-02T06:19:16.479Z,99817.78
2022-10-02T06:21:52.382Z,99821.97
2022-10-02T06:24:28.245Z,99815.72
2022-10-02T06:27:04.437Z,99816.13
2022-10-02T06:29:43.038Z,99818.19
2022-10-02T06:32:20.985Z,99814.16
2022-10-02T06:34:53.238Z,99815.47
2022-10-02T06:37:53.117Z,99812.81
2022-10-02T06:40:45.859Z,99818.34
2022-10-02T06:43:31.495Z,99827.66
2022-10-02T06:46:11.785Z,99829.22
2022-10-02T06:48:53.159Z,99831.88
2022-10-02T06:51:27.682Z,99829.91
2022-10-02T06:54:19.558Z,99835.13
2022-10-02T06:57:05.572Z,99832.22
2022-10-02T06:59:53.023Z,99840.59
2022-10-02T07:02:42.880Z,99834.16
2022-10-02T07:05:30.833Z,99834.06
2022-10-02T07:08:12.125Z,99842.25
2022-10-02T07:10:48.356Z,99846.09
2022-10-02T07:13:32.727Z,99852.56
2022-10-02T07:16:30.861Z,99855.28
2022-10-02T07:19:29.094Z,99861.25
2022-10-02T07:22:25.815Z,99863.81
2022-10-02T07:25:17.265Z,99876.25
2022-10-02T07:27:58.897Z,99868.31
2022-10-02T07:30:40.529Z,99877.31
2022-10-02T07:33:21.329Z,99864.25
2022-10-02T07:36:03.230Z,99894.53
2022-10-02T07:38:48.879Z,99884.97
2022-10-02T07:41:51.419Z,99892.53
2022-10-02T07:44:44.377Z,99878.50
2022-10-02T07:47:30.231Z,99890.75
2022-10-02T07:50:09.766Z,99901.94
2022-10-02T07:52:54.519Z,99893.78
2022-10-02T07:55:25.820Z,99896.72
2022-10-02T07:58:03.465Z,99893.44
2022-10-02T08:00:38.417Z,99903.78
2022-10-02T08:03:15.460Z,99896.47
2022-10-02T08:05:48.801Z,99897.84
2022-10-02T08:08:26.630Z,99914.50
2022-10-02T08:11:02.152Z,99909.59
2022-10-02T08:13:35.689Z,99914.50
2022-10-02T08:16:07.783Z,99908.03
2022-10-02T08:18:44.034Z,99920.34
2022-10-02T08:21:18.229Z,99914.69
2022-10-02T08:23:55.950Z,99912.94
2022-10-02T08:26:35.920Z,99904.59
2022-10-02T08:29:12.266Z,99897.31
2022-10-02T08:31:42.620Z,99914.22
2022-10-02T08:34:21.065Z,99907.84
2022-10-02T08:37:24.450Z,99910.94
2022-10-02T08:40:44.312Z,99915.88
2022-10-02T08:43:47.935Z,99907.44
2022-10-02T08:46:44.245Z,99905.28
2022-10-02T08:49:43.850Z,99913.69
2022-10-02T08:52:54.298Z,99912.31
2022-10-02T08:55:47.481Z,99912.91
2022-10-02T08:58:48.519Z,99911.41
2022-10-02T09:01:39.180Z,99916.16
2022-10-02T09:04:43.627Z,99911.88
2022-10-02T09:07:58.148Z,99914.00
2022-10-02T09:10:55.817Z,99910.06
2022-10-02T09:14:14.586Z,99918.41
2022-10-02T09:17:15.760Z,99913.41
2022-10-02T09:19:56.612Z,99922.41
2022-10-02T09:22:52.097Z,99916.75
2022-10-02T09:25:33.091Z,99916.94
2022-10-02T09:28:33.152Z,99916.94
2022-10-02T09:31:33.507Z,99915.53
2022-10-02T09:34:39.639Z,99913.75
2022-10-02T09:37:35.751Z,99919.88
2022-10-02T09:40:48.862Z,99917.84
2022-10-02T09:43:55.419Z,99915.38
2022-10-02T09:46:59.585Z,99926.66
2022-10-02T09:49:57.580Z,99926.53
2022-10-02T09:52:57.846Z,99928.56
2022-10-02T09:55:58.523Z,99917.50
2022-10-02T09:59:13.219Z,99918.31
2022-10-02T10:02:26.174Z,99909.97
2022-10-02T10:05:35.562Z,99903.16
2022-10-02T10:08:35.375Z,99909.97
2022-10-02T10:11:21.136Z,99910.66
2022-10-02T10:14:23.466Z,99912.84
2022-10-02T10:17:28.371Z,99912.88
2022-10-02T10:20:36.981Z,99913.78
2022-10-02T10:23:23.694Z,99904.47
2022-10-02T10:26:15.112Z,99900.53
2022-10-02T10:29:22.200Z,99915.38
2022-10-02T10:32:15.705Z,99900.84
2022-10-02T10:35:11.644Z,99901.91
2022-10-02T10:38:11.364Z,99903.03
2022-10-02T10:40:52.720Z,99883.75
2022-10-02T10:44:07.299Z,99896.28
2022-10-02T10:47:02.287Z,99890.22
2022-10-02T10:50:02.435Z,99903.81
2022-10-02T10:53:04.137Z,99903.56
2022-10-02T10:55:59.215Z,99891.03
2022-10-02T10:58:46.523Z,99899.66
2022-10-02T11:01:21.681Z,99899.47
2022-10-02T11:04:08.993Z,99894.81
2022-10-02T11:07:03.763Z,99898.38
2022-10-02T11:10:07.817Z,99897.81
2022-10-02T11:13:03.301Z,99893.63
2022-10-02T11:16:02.776Z,99891.63
2022-10-02T11:18:54.229Z,99887.72
2022-10-02T11:21:56.636Z,99885.31
2022-10-02T11:24:51.100Z,99884.34
2022-10-02T11:27:46.768Z,99886.72
2022-10-02T11:30:25.222Z,99868.66
2022-10-02T11:33:30.725Z,99889.59
2022-10-02T11:36:24.911Z,99882.06
2022-10-02T11:39:17.496Z,99881.16
2022-10-02T11:42:14.326Z,99892.06
2022-10-02T11:45:24.163Z,99879.31
2022-10-02T11:48:13.254Z,99872.63
2022-10-02T11:50:56.873Z,99860.88
2022-10-02T11:53:36.841Z,99847.16
2022-10-02T11:56:26.548Z,99846.00
2022-10-02T11:59:18.526Z,99833.22
2022-10-02T12:01:59.456Z,99856.56
2022-10-02T12:04:40.951Z,99846.63
2022-10-02T12:07:27.462Z,99861.16
2022-10-02T12:10:20.155Z,99859.03
2022-10-02T12:13:00.523Z,99853.00
2022-10-02T12:15:41.208Z,99859.38
2022-10-02T12:18:40.933Z,99867.72
2022-10-02T12:21:42.083Z,99859.31
2022-10-02T12:24:34.559Z,99853.78
2022-10-02T12:27:15.885Z,99851.28
2022-10-02T12:30:04.257Z,99854.91
2022-10-02T12:32:58.925Z,99852.38
2022-10-02T12:35:56.844Z,99845.09
2022-10-02T12:38:44.580Z,99853.22
2022-10-02T12:41:35.788Z,99845.59
2022-10-02T12:44:22.189Z,99846.69
2022-10-02T12:47:33.923Z,99843.56
2022-10-02T12:50:21.998Z,99839.91
2022-10-02T12:53:25.145Z,99840.22
2022-10-02T12:56:35.208Z,99841.50
2022-10-02T12:59:16.929Z,99844.81
2022-10-02T13:02:18.413Z,99843.69
2022-10-02T13:05:10.931Z,99845.97
2022-10-02T13:08:14.375Z,99841.22
2022-10-02T13:10:54.331Z,99838.47
2022-10-02T13:13:37.746Z,99835.94
2022-10-02T13:16:16.581Z,99844.16
2022-10-02T13:18:58.869Z,99837.69
2022-10-02T13:21:39.939Z,99830.53
2022-10-02T13:24:26.807Z,99825.44
2022-10-02T13:27:06.501Z,99820.06
2022-10-02T13:29:54.543Z,99822.25
2022-10-02T13:32:47.657Z,99815.41
2022-10-02T13:35:53.145Z,99802.41
2022-10-02T13:38:38.132Z,99787.63
2022-10-02T13:41:18.414Z,99799.47
2022-10-02T13:44:07.996Z,99793.97
2022-10-02T13:46:54.431Z,99803.38
2022-10-02T13:49:40.266Z,99807.84
2022-10-02T13:52:23.571Z,99788.38
2022-10-02T13:55:08.773Z,99794.94
2022-10-02T13:57:57.237Z,99799.00
2022-10-02T14:01:02.572Z,99788.19
2022-10-02T14:03:50.496Z,99786.41
2022-10-02T14:06:27.419Z,99791.09
2022-10-02T14:09:31.576Z,99797.41
2022-10-02T14:12:28.849Z,99781.47
2022-10-02T14:15:09.516Z,99805.50
2022-10-02T14:17:54.847Z,99798.09
2022-10-02T14:20:37.341Z,99796.34
2022-10-02T14:23:37.790Z,99802.44
2022-10-02T14:26:15.823Z,99807.38
2022-10-02T14:29:20.319Z,99800.25
2022-10-02T14:32:08.763Z,99798.50
2022-10-02T14:34:58.321Z,99798.41
2022-10-02T14:37:58.264Z,99795.66
2022-10-02T14:40:36.019Z,99792.81
2022-10-02T14:43:24.606Z,99789.84
2022-10-02T14:46:05.903Z,99783.72
2022-10-02T14:48:52.498Z,99796.06
2022-10-02T14:51:37.337Z,99794.94
2022-10-02T14:54:24.558Z,99779.63
2022-10-02T14:57:02.043Z,99785.84
2022-10-02T14:59:59.198Z,99773.25
2022-10-02T15:03:28.910Z,99769.25
2022-10-02T15:06:26.170Z,99762.47
2022-10-02T15:09:08.089Z,99759.84
2022-10-02T15:12:13.912Z,99762.72
2022-10-02T15:14:57.382Z,99770.22
2022-10-02T15:17:47.720Z,99779.25
2022-10-02T15:20:26.581Z,99765.75
2022-10-02T15:23:00.641Z,99770.25
2022-10-02T15:26:07.490Z,99763.81
2022-10-02T15:28:58.966Z,99769.00
2022-10-02T15:31:41.569Z,99770.00
2022-10-02T15:34:24.813Z,99768.03
2022-10-02T15:37:14.389Z,99761.56
2022-10-02T15:40:06.469Z,99763.56
2022-10-02T15:42:57.993Z,99760.06
2022-10-02T15:46:06.077Z,99758.22
2022-10-02T15:48:57.006Z,99757.22
2022-10-02T15:51:37.915Z,99758.44
2022-10-02T15:54:19.490Z,99756.59
2022-10-02T15:57:08.843Z,99748.59
2022-10-02T15:59:55.194Z,99751.38
2022-10-02T16:02:57.482Z,99753.91
2022-10-02T16:05:41.833Z,99760.53
2022-10-02T16:08:37.387Z,99764.19
2022-10-02T16:11:29.430Z,99761.19
2022-10-02T16:14:08.847Z,99760.66
2022-10-02T16:17:20.770Z,99763.28
2022-10-02T16:20:15.197Z,99764.91
2022-10-02T16:23:00.201Z,99759.91
2022-10-02T16:25:56.723Z,99763.66
2022-10-02T16:28:49.984Z,99764.34
2022-10-02T16:31:38.944Z,99754.44
2022-10-02T16:34:34.223Z,99762.22
2022-10-02T16:37:12.974Z,99753.56
2022-10-02T16:39:59.579Z,99758.66
2022-10-02T16:42:46.994Z,99760.25
2022-10-02T16:45:32.733Z,99757.06
2022-10-02T16:48:14.167Z,99765.38
2022-10-02T16:50:56.121Z,99763.69
2022-10-02T16:53:35.888Z,99761.53
2022-10-02T16:56:13.912Z,99752.13
2022-10-02T16:58:51.052Z,99753.97
2022-10-02T17:01:32.898Z,99748.81
2022-10-02T17:04:30.861Z,99747.66
2022-10-02T17:07:05.183Z,99752.81
2022-10-02T17:09:54.806Z,99750.53
2022-10-02T17:12:31.378Z,99748.69
2022-10-02T17:15:06.260Z,99751.34
2022-10-02T17:17:55.115Z,99753.34
2022-10-02T17:20:29.415Z,99747.50
2022-10-02T17:23:04.640Z,99741.34
2022-10-02T17:25:45.382Z,99747.44
2022-10-02T17:28:25.796Z,99732.66
2022-10-02T17:31:15.603Z,99732.47
2022-10-02T17:33:49.778Z,99739.91
2022-10-02T17:36:25.541Z,99737.56
2022-10-02T17:39:06.492Z,99724.69
2022-10-02T17:41:49.475Z,99727.78
2022-10-02T17:44:27.531Z,99721.25
2022-10-02T17:47:24.681Z,99731.78
2022-10-02T17:50:08.324Z,99733.59
2022-10-02T17:52:57.286Z,99734.44
2022-10-02T17:56:04.675Z,99727.69
2022-10-02T17:58:57.184Z,99722.97
2022-10-02T18:01:36.762Z,99729.59
2022-10-02T18:04:19.317Z,99732.03
2022-10-02T18:07:02.411Z,99730.00
2022-10-02T18:09:52.024Z,99741.59
2022-10-02T18:12:55.300Z,99738.59
2022-10-02T18:15:53.287Z,99731.09
2022-10-02T18:18:35.777Z,99725.78
2022-10-02T18:21:20.668Z,99737.72
2022-10-02T18:24:32.186Z,99734.38
2022-10-02T18:27:26.796Z,99740.44
2022-10-02T18:30:08.961Z,99724.16
2022-10-02T18:33:25.439Z,99731.28
2022-10-02T18:36:11.423Z,99728.50
2022-10-02T18:39:00.816Z,99728.69
2022-10-02T18:41:47.840Z,99728.84
2022-10-02T18:44:30.421Z,99722.19
2022-10-02T18:47:07.395Z,99715.94
2022-10-02T18:50:12.894Z,99718.13
2022-10-02T18:52:59.058Z,99717.66
2022-10-02T18:55:53.257Z,99704.41
2022-10-02T18:58:54.877Z,99716.53
2022-10-02T19:01:51.110Z,99715.84
2022-10-02T19:04:37.590Z,99722.97
2022-10-02T19:07:19.479Z,99709.56
2022-10-02T19:09:50.057Z,99716.38
2022-10-02T19:12:25.146Z,99722.03
2022-10-02T19:14:57.315Z,99714.75
2022-10-02T19:17:29.923Z,99703.44
2022-10-02T19:20:00.675Z,99721.03
2022-10-02T19:22:38.632Z,99719.75
2022-10-02T19:25:19.654Z,99723.91
2022-10-02T19:27:54.683Z,99716.31
2022-10-02T19:30:27.439Z,99714.19
2022-10-02T19:33:00.918Z,99708.09
2022-10-02T19:35:33.924Z,99709.78
2022-10-02T19:38:15.147Z,99704.16
2022-10-02T19:40:45.991Z,99705.13
2022-10-02T19:43:23.261Z,99695.66
2022-10-02T19:45:57.496Z,99698.31
2022-10-02T19:48:30.179Z,99699.47
2022-10-02T19:51:02.483Z,99690.47
2022-10-02T19:53:42.910Z,99689.16
2022-10-02T19:56:16.880Z,99694.00
2022-10-02T19:58:51.514Z,99701.66
2022-10-02T20:01:23.325Z,99692.69
2022-10-02T20:03:59.187Z,99693.16
2022-10-02T20:06:34.243Z,99678.66
2022-10-02T20:09:17.993Z,99694.31
2022-10-02T20:11:53.026Z,99695.13
2022-10-02T20:14:31.002Z,99704.31
2022-10-02T20:17:10.793Z,99695.81
2022-10-02T20:19:48.387Z,99693.31
2022-10-02T20:22:31.880Z,99698.25
2022-10-02T20:25:10.119Z,99697.63
2022-10-02T20:27:50.514Z,99690.28
2022-10-02T20:30:23.184Z,99686.56
2022-10-02T20:32:59.007Z,99683.91
2022-10-02T20:35:36.304Z,99684.84
2022-10-02T20:38:13.436Z,99689.53
2022-10-02T20:40:53.419Z,99671.94
2022-10-02T20:43:29.368Z,99681.94
2022-10-02T20:46:28.392Z,99674.22
2022-10-02T20:49:15.013Z,99673.75
2022-10-02T20:52:22.379Z,99667.50
2022-10-02T20:55:01.636Z,99657.72
2022-10-02T20:58:10.631Z,99646.56
2022-10-02T21:01:00.323Z,99646.09
2022-10-02T21:04:00.574Z,99658.22
2022-10-02T21:07:06.748Z,99653.44
2022-10-02T21:10:10.044Z,99647.63
2022-10-02T21:13:14.257Z,99649.59
2022-10-02T21:16:13.351Z,99654.44
2022-10-02T21:19:22.375Z,99647.13
2022-10-02T21:22:14.640Z,99640.00
2022-10-02T21:25:26.214Z,99637.66
2022-10-02T21:28:36.959Z,99631.22
2022-10-02T21:31:21.314Z,99632.97
2022-10-02T21:33:58.009Z,99614.19
2022-10-02T21:36:35.736Z,99604.38
2022-10-02T21:39:37.600Z,99606.69
2022-10-02T21:42:42.025Z,99614.81
2022-10-02T21:45:54.312Z,99605.84
2022-10-02T21:48:58.024Z,99606.34
2022-10-02T21:52:00.169Z,99604.34
2022-10-02T21:55:02.581Z,99612.13
2022-10-02T21:58:09.916Z,99613.16
2022-10-02T22:01:05.444Z,99605.25
2022-10-02T22:04:04.872Z,99589.13
2022-10-02T22:06:51.276Z,99598.25
2022-10-02T22:09:46.121Z,99611.03
2022-10-02T22:12:30.268Z,99601.56
2022-10-02T22:15:13.374Z,99595.41
2022-10-02T22:17:58.390Z,99587.97
2022-10-02T22:20:50.492Z,99570.34
2022-10-02T22:23:49.761Z,99584.84
2022-10-02T22:26:35.002Z,99592.13
2022-10-02T22:29:15.596Z,99581.72
2022-10-02T22:32:18.169Z,99568.75
2022-10-02T22:34:57.483Z,99572.09
2022-10-02T22:37:44.506Z,99562.25
2022-10-02T22:40:20.597Z,99574.31
2022-10-02T22:42:57.603Z,99557.91
2022-10-02T22:45:36.205Z,99557.75
2022-10-02T22:48:13.609Z,99562.41
2022-10-02T22:50:53.876Z,99559.75
2022-10-02T22:53:31.180Z,99554.75
2022-10-02T22:56:01.333Z,99551.94
2022-10-02T22:58:39.411Z,99559.88
2022-10-02T23:01:17.709Z,99557.19
2022-10-02T23:03:53.793Z,99571.75
2022-10-02T23:06:32.469Z,99567.66
2022-10-02T23:09:09.352Z,99562.91
2022-10-02T23:11:44.813Z,99565.00
2022-10-02T23:14:24.043Z,99561.50
2022-10-02T23:17:03.135Z,99553.94
2022-10-02T23:19:45.119Z,99545.16
2022-10-02T23:22:28.686Z,99546.75
2022-10-02T23:25:07.074Z,99553.22
2022-10-02T23:27:48.885Z,99556.47
2022-10-02T23:30:22.369Z,99563.88
2022-10-02T23:32:58.380Z,99560.72
2022-10-02T23:35:33.886Z,99567.66
2022-10-02T23:38:18.158Z,99557.94
2022-10-02T23:41:22.865Z,99572.97
2022-10-02T23:44:02.405Z,99575.25
2022-10-02T23:46:38.777Z,99581.63
2022-10-02T23:49:12.998Z,99596.84
2022-10-02T23:51:53.551Z,99589.72
2022-10-02T23:54:46.533Z,99592.84
2022-10-02T23:57:35.708Z,99592.16
